sensor_id;sensor_type;location;lat;lon;timestamp;pressure;altitude;pressure_sealevel;temperature;humidity
21904;BME280;11116;51.554;7.812;2022-10-22T00:02:05;100215.97;;;14.55;100.00
21904;BME280;11116;51.554;7.812;2022-10-22T00:04:32;100213.78;;;14.35;100.00
21904;BME280;11116;51.554;7.812;2022-10-22T00:07:01;100219.19;;;14.25;100.00
21904;BME280;11116;51.554;7.812;2022-10-22T00:09:27;100236.81;;;14.26;100.00
21904;BME280;11116;51.554;7.812;2022-10-22T00:11:54;100235.91;;;14.51;100.00
21904;BME280;11116;51.554;7.812;2022-10-22T00:14:21;100235.38;;;14.40;100.00
21904;BME280;11116;51.554;7.812;2022-10-22T00:16:48;100232.16;;;14.28;100.00
21904;BME280;11116;51.554;7.812;2022-10-22T00:19:14;100237.59;;;14.60;100.00
21904;BME280;11116;51.554;7.812;2022-10-22T00:21:41;100239.06;;;14.55;100.00
21904;BME280;11116;51.554;7.812;2022-10-22T00:24:09;100230.91;;;14.40;100.00
21904;BME280;11116;51.554;7.812;2022-10-22T00:26:36;100242.47;;;14.31;100.00
21904;BME280;11116;51.554;7.812;2022-10-22T00:29:04;100244.31;;;14.31;100.00
21904;BME280;11116;51.554;7.812;2022-10-22T00:31:31;100252.16;;;14.48;100.00
21904;BME280;11116;51.554;7.812;2022-10-22T00:33:58;100257.31;;;14.42;100.00
21904;BME280;11116;51.554;7.812;2022-10-22T00:36:24;100257.03;;;14.61;100.00
21904;BME280;11116;51.554;7.812;2022-10-22T00:38:51;100249.06;;;14.69;100.00
21904;BME280;11116;51.554;7.812;2022-10-22T00:41:20;100236.91;;;14.50;100.00
21904;BME280;11116;51.554;7.812;2022-10-22T00:43:58;100235.91;;;14.51;100.00
21904;BME280;11116;51.554;7.812;2022-10-22T00:46:25;100235.69;;;14.37;100.00
21904;BME280;11116;51.554;7.812;2022-10-22T00:48:52;100238.91;;;14.56;100.00
21904;BME280;11116;51.554;7.812;2022-10-22T00:51:21;100238.03;;;14.40;100.00
21904;BME280;11116;51.554;7.812;2022-10-22T00:53:53;100241.69;;;14.39;100.00
21904;BME280;11116;51.554;7.812;2022-10-22T00:56:23;100257.28;;;14.34;100.00
21904;BME280;11116;51.554;7.812;2022-10-22T00:58:52;100260.81;;;14.42;100.00
21904;BME280;11116;51.554;7.812;2022-10-22T01:01:25;100261.47;;;14.44;100.00
21904;BME280;11116;51.554;7.812;2022-10-22T01:03:52;100265.00;;;14.53;100.00
21904;BME280;11116;51.554;7.812;2022-10-22T01:06:24;100252.34;;;14.55;100.00
21904;BME280;11116;51.554;7.812;2022-10-22T01:08:57;100244.94;;;14.83;100.00
21904;BME280;11116;51.554;7.812;2022-10-22T01:11:34;100235.44;;;14.64;100.00
21904;BME280;11116;51.554;7.812;2022-10-22T01:14:13;100232.75;;;14.48;100.00
21904;BME280;11116;51.554;7.812;2022-10-22T01:16:47;100236.53;;;14.45;100.00
21904;BME280;11116;51.554;7.812;2022-10-22T01:19:30;100236.22;;;14.48;100.00
21904;BME280;11116;51.554;7.812;2022-10-22T01:22:04;100230.44;;;14.45;100.00
21904;BME280;11116;51.554;7.812;2022-10-22T01:24:49;100232.38;;;14.43;100.00
21904;BME280;11116;51.554;7.812;2022-10-22T01:27:43;100240.88;;;14.38;100.00
21904;BME280;11116;51.554;7.812;2022-10-22T01:30:16;100240.53;;;14.33;100.00
21904;BME280;11116;51.554;7.812;2022-10-22T01:32:47;100234.66;;;14.30;100.00
21904;BME280;11116;51.554;7.812;2022-10-22T01:35:18;100236.22;;;14.48;100.00
21904;BME280;11116;51.554;7.812;2022-10-22T01:37:49;100230.91;;;14.40;100.00
21904;BME280;11116;51.554;7.812;2022-10-22T01:40:18;100229.06;;;14.41;100.00
21904;BME280;11116;51.554;7.812;2022-10-22T01:42:54;100229.28;;;14.55;100.00
21904;BME280;11116;51.554;7.812;2022-10-22T01:45:23;100227.91;;;14.43;100.00
21904;BME280;11116;51.554;7.812;2022-10-22T01:47:56;100228.56;;;14.45;100.00
21904;BME280;11116;51.554;7.812;2022-10-22T01:50:38;100227.78;;;14.45;100.00
21904;BME280;11116;51.554;7.812;2022-10-22T01:53:17;100213.13;;;14.41;100.00
21904;BME280;11116;51.554;7.812;2022-10-22T01:55:56;100216.06;;;14.30;100.00
21904;BME280;11116;51.554;7.812;2022-10-22T01:58:36;100207.91;;;14.31;100.00
21904;BME280;11116;51.554;7.812;2022-10-22T02:01:14;100209.56;;;14.16;100.00
21904;BME280;11116;51.554;7.812;2022-10-22T02:03:47;100223.94;;;14.05;100.00
21904;BME280;11116;51.554;7.812;2022-10-22T02:06:20;100224.13;;;14.04;100.00
21904;BME280;11116;51.554;7.812;2022-10-22T02:08:51;100222.66;;;14.18;100.00
21904;BME280;11116;51.554;7.812;2022-10-22T02:11:19;100221.81;;;14.09;100.00
21904;BME280;11116;51.554;7.812;2022-10-22T02:13:48;100221.81;;;14.09;100.00
21904;BME280;11116;51.554;7.812;2022-10-22T02:16:21;100222.63;;;14.09;100.00
21904;BME280;11116;51.554;7.812;2022-10-22T02:18:54;100245.59;;;14.19;100.00
21904;BME280;11116;51.554;7.812;2022-10-22T02:21:23;100240.41;;;14.17;100.00
21904;BME280;11116;51.554;7.812;2022-10-22T02:23:51;100241.88;;;14.03;100.00
21904;BME280;11116;51.554;7.812;2022-10-22T02:26:22;100244.34;;;14.05;100.00
21904;BME280;11116;51.554;7.812;2022-10-22T02:28:55;100243.47;;;13.96;100.00
21904;BME280;11116;51.554;7.812;2022-10-22T02:31:27;100256.09;;;13.94;100.00
21904;BME280;11116;51.554;7.812;2022-10-22T02:33:57;100262.28;;;14.03;100.00
21904;BME280;11116;51.554;7.812;2022-10-22T02:36:27;100258.97;;;14.01;100.00
21904;BME280;11116;51.554;7.812;2022-10-22T02:38:54;100269.63;;;14.09;100.00
21904;BME280;11116;51.554;7.812;2022-10-22T02:41:22;100262.94;;;14.05;100.00
21904;BME280;11116;51.554;7.812;2022-10-22T02:43:52;100269.91;;;13.98;100.00
21904;BME280;11116;51.554;7.812;2022-10-22T02:46:20;100283.00;;;13.99;100.00
21904;BME280;11116;51.554;7.812;2022-10-22T02:48:48;100299.81;;;14.08;100.00
21904;BME280;11116;51.554;7.812;2022-10-22T02:51:15;100285.19;;;14.04;100.00
21904;BME280;11116;51.554;7.812;2022-10-22T02:53:41;100291.19;;;14.06;100.00
21904;BME280;11116;51.554;7.812;2022-10-22T02:56:09;100292.47;;;14.02;100.00
21904;BME280;11116;51.554;7.812;2022-10-22T02:58:35;100290.97;;;13.99;100.00
21904;BME280;11116;51.554;7.812;2022-10-22T03:01:02;100288.16;;;14.01;100.00
21904;BME280;11116;51.554;7.812;2022-10-22T03:03:29;100302.28;;;14.01;100.00
21904;BME280;11116;51.554;7.812;2022-10-22T03:05:57;100297.03;;;13.84;100.00
21904;BME280;11116;51.554;7.812;2022-10-22T03:08:24;100293.03;;;13.80;100.00
21904;BME280;11116;51.554;7.812;2022-10-22T03:10:51;100308.06;;;13.71;100.00
21904;BME280;11116;51.554;7.812;2022-10-22T03:13:18;100309.00;;;13.62;100.00
21904;BME280;11116;51.554;7.812;2022-10-22T03:15:47;100304.72;;;13.43;100.00
21904;BME280;11116;51.554;7.812;2022-10-22T03:18:14;100317.63;;;13.21;100.00
21904;BME280;11116;51.554;7.812;2022-10-22T03:20:41;100329.72;;;13.06;100.00
21904;BME280;11116;51.554;7.812;2022-10-22T03:23:09;100335.09;;;12.96;100.00
21904;BME280;11116;51.554;7.812;2022-10-22T03:25:39;100358.72;;;12.89;100.00
21904;BME280;11116;51.554;7.812;2022-10-22T03:28:08;100374.78;;;12.88;100.00
21904;BME280;11116;51.554;7.812;2022-10-22T03:30:36;100388.53;;;12.74;100.00
21904;BME280;11116;51.554;7.812;2022-10-22T03:33:03;100405.16;;;12.66;100.00
21904;BME280;11116;51.554;7.812;2022-10-22T03:35:30;100413.56;;;12.62;100.00
21904;BME280;11116;51.554;7.812;2022-10-22T03:37:59;100430.59;;;12.59;100.00
21904;BME280;11116;51.554;7.812;2022-10-22T03:40:27;100436.59;;;12.52;100.00
21904;BME280;11116;51.554;7.812;2022-10-22T03:42:55;100450.97;;;12.49;100.00
21904;BME280;11116;51.554;7.812;2022-10-22T03:45:22;100450.03;;;12.31;100.00
21904;BME280;11116;51.554;7.812;2022-10-22T03:47:49;100465.69;;;12.24;100.00
21904;BME280;11116;51.554;7.812;2022-10-22T03:50:15;100480.06;;;12.12;100.00
21904;BME280;11116;51.554;7.812;2022-10-22T03:52:43;100489.41;;;12.07;100.00
21904;BME280;11116;51.554;7.812;2022-10-22T03:55:09;100512.25;;;11.98;100.00
21904;BME280;11116;51.554;7.812;2022-10-22T03:57:37;100524.78;;;12.06;100.00
21904;BME280;11116;51.554;7.812;2022-10-22T04:00:05;100548.47;;;11.98;100.00
21904;BME280;11116;51.554;7.812;2022-10-22T04:02:32;100562.13;;;12.03;100.00
21904;BME280;11116;51.554;7.812;2022-10-22T04:05:00;100586.78;;;12.03;100.00
21904;BME280;11116;51.554;7.812;2022-10-22T04:07:27;100592.78;;;12.15;100.00
21904;BME280;11116;51.554;7.812;2022-10-22T04:09:54;100604.34;;;12.14;100.00
21904;BME280;11116;51.554;7.812;2022-10-22T04:12:20;100615.22;;;12.20;100.00
21904;BME280;11116;51.554;7.812;2022-10-22T04:14:49;100617.72;;;12.22;100.00
21904;BME280;11116;51.554;7.812;2022-10-22T04:17:15;100612.16;;;12.25;100.00
21904;BME280;11116;51.554;7.812;2022-10-22T04:19:42;100604.63;;;12.11;100.00
21904;BME280;11116;51.554;7.812;2022-10-22T04:22:09;100613.97;;;12.43;100.00
21904;BME280;11116;51.554;7.812;2022-10-22T04:24:36;100609.75;;;12.60;100.00
21904;BME280;11116;51.554;7.812;2022-10-22T04:27:02;100624.66;;;12.90;100.00
21904;BME280;11116;51.554;7.812;2022-10-22T04:29:29;100620.31;;;13.08;100.00
21904;BME280;11116;51.554;7.812;2022-10-22T04:31:57;100610.66;;;13.07;100.00
21904;BME280;11116;51.554;7.812;2022-10-22T04:34:26;100600.47;;;13.12;100.00
21904;BME280;11116;51.554;7.812;2022-10-22T04:36:53;100586.97;;;12.96;100.00
21904;BME280;11116;51.554;7.812;2022-10-22T04:39:19;100581.38;;;12.99;100.00
21904;BME280;11116;51.554;7.812;2022-10-22T04:41:46;100579.78;;;13.06;100.00
21904;BME280;11116;51.554;7.812;2022-10-22T04:44:13;100586.50;;;13.00;100.00
21904;BME280;11116;51.554;7.812;2022-10-22T04:46:40;100569.25;;;12.87;100.00
21904;BME280;11116;51.554;7.812;2022-10-22T04:49:08;100559.97;;;12.64;100.00
21904;BME280;11116;51.554;7.812;2022-10-22T04:51:35;100562.22;;;12.59;100.00
21904;BME280;11116;51.554;7.812;2022-10-22T04:54:01;100562.38;;;12.48;100.00
21904;BME280;11116;51.554;7.812;2022-10-22T04:56:30;100585.28;;;12.95;100.00
21904;BME280;11116;51.554;7.812;2022-10-22T04:58:59;100578.75;;;12.89;100.00
21904;BME280;11116;51.554;7.812;2022-10-22T05:01:28;100577.63;;;12.92;100.00
21904;BME280;11116;51.554;7.812;2022-10-22T05:03:56;100571.41;;;12.74;100.00
21904;BME280;11116;51.554;7.812;2022-10-22T05:06:26;100564.72;;;12.70;100.00
21904;BME280;11116;51.554;7.812;2022-10-22T05:08:55;100584.56;;;13.02;100.00
21904;BME280;11116;51.554;7.812;2022-10-22T05:11:23;100605.31;;;13.26;100.00
21904;BME280;11116;51.554;7.812;2022-10-22T05:13:50;100600.06;;;13.44;100.00
21904;BME280;11116;51.554;7.812;2022-10-22T05:16:17;100596.13;;;13.48;100.00
21904;BME280;11116;51.554;7.812;2022-10-22T05:18:44;100576.28;;;13.52;100.00
21904;BME280;11116;51.554;7.812;2022-10-22T05:21:12;100564.75;;;13.43;100.00
21904;BME280;11116;51.554;7.812;2022-10-22T05:23:41;100570.53;;;13.56;100.00
21904;BME280;11116;51.554;7.812;2022-10-22T05:26:09;100569.63;;;13.66;100.00
21904;BME280;11116;51.554;7.812;2022-10-22T05:28:37;100551.59;;;13.69;100.00
21904;BME280;11116;51.554;7.812;2022-10-22T05:31:05;100558.25;;;13.73;100.00
21904;BME280;11116;51.554;7.812;2022-10-22T05:33:35;100555.16;;;13.78;100.00
21904;BME280;11116;51.554;7.812;2022-10-22T05:36:03;100539.91;;;13.80;100.00
21904;BME280;11116;51.554;7.812;2022-10-22T05:38:31;100556.00;;;13.78;100.00
21904;BME280;11116;51.554;7.812;2022-10-22T05:41:01;100552.16;;;13.73;100.00
21904;BME280;11116;51.554;7.812;2022-10-22T05:43:29;100554.94;;;13.89;100.00
21904;BME280;11116;51.554;7.812;2022-10-22T05:45:55;100552.53;;;13.78;100.00
21904;BME280;11116;51.554;7.812;2022-10-22T05:48:26;100542.75;;;13.78;100.00
21904;BME280;11116;51.554;7.812;2022-10-22T05:50:53;100543.03;;;13.75;100.00
21904;BME280;11116;51.554;7.812;2022-10-22T05:53:20;100546.22;;;13.96;100.00
21904;BME280;11116;51.554;7.812;2022-10-22T05:55:47;100542.13;;;13.84;100.00
21904;BME280;11116;51.554;7.812;2022-10-22T05:58:16;100531.53;;;13.84;100.00
21904;BME280;11116;51.554;7.812;2022-10-22T06:00:44;100538.72;;;13.92;100.00
21904;BME280;11116;51.554;7.812;2022-10-22T06:03:11;100543.34;;;13.90;100.00
21904;BME280;11116;51.554;7.812;2022-10-22T06:05:39;100555.94;;;14.05;100.00
21904;BME280;11116;51.554;7.812;2022-10-22T06:08:09;100553.66;;;14.10;100.00
21904;BME280;11116;51.554;7.812;2022-10-22T06:10:39;100547.59;;;14.18;100.00
21904;BME280;11116;51.554;7.812;2022-10-22T06:13:08;100546.19;;;14.49;100.00
21904;BME280;11116;51.554;7.812;2022-10-22T06:15:36;100527.06;;;14.28;100.00
21904;BME280;11116;51.554;7.812;2022-10-22T06:18:03;100523.19;;;14.23;100.00
21904;BME280;11116;51.554;7.812;2022-10-22T06:20:32;100522.06;;;14.25;100.00
21904;BME280;11116;51.554;7.812;2022-10-22T06:22:59;100518.78;;;14.31;100.00
21904;BME280;11116;51.554;7.812;2022-10-22T06:25:26;100516.44;;;14.28;100.00
21904;BME280;11116;51.554;7.812;2022-10-22T06:27:53;100522.59;;;14.29;100.00
21904;BME280;11116;51.554;7.812;2022-10-22T06:30:19;100515.00;;;14.34;100.00
21904;BME280;11116;51.554;7.812;2022-10-22T06:32:48;100528.16;;;14.35;100.00
21904;BME280;11116;51.554;7.812;2022-10-22T06:35:15;100516.03;;;14.33;100.00
21904;BME280;11116;51.554;7.812;2022-10-22T06:37:41;100517.22;;;14.38;100.00
21904;BME280;11116;51.554;7.812;2022-10-22T06:40:09;100522.28;;;14.32;100.00
21904;BME280;11116;51.554;7.812;2022-10-22T06:42:36;100528.75;;;14.47;100.00
21904;BME280;11116;51.554;7.812;2022-10-22T06:45:04;100526.88;;;14.39;100.00
21904;BME280;11116;51.554;7.812;2022-10-22T06:47:31;100531.72;;;14.44;100.00
21904;BME280;11116;51.554;7.812;2022-10-22T06:49:59;100544.66;;;14.64;100.00
21904;BME280;11116;51.554;7.812;2022-10-22T06:52:26;100532.38;;;14.71;100.00
21904;BME280;11116;51.554;7.812;2022-10-22T06:54:53;100528.38;;;14.67;100.00
21904;BME280;11116;51.554;7.812;2022-10-22T06:57:20;100527.81;;;14.82;100.00
21904;BME280;11116;51.554;7.812;2022-10-22T06:59:46;100528.78;;;14.81;100.00
21904;BME280;11116;51.554;7.812;2022-10-22T07:02:13;100525.38;;;14.96;100.00
21904;BME280;11116;51.554;7.812;2022-10-22T07:04:40;100519.00;;;14.81;100.00
21904;BME280;11116;51.554;7.812;2022-10-22T07:07:08;100512.47;;;15.09;100.00
21904;BME280;11116;51.554;7.812;2022-10-22T07:09:35;100508.28;;;14.99;100.00
21904;BME280;11116;51.554;7.812;2022-10-22T07:12:04;100504.00;;;15.06;100.00
21904;BME280;11116;51.554;7.812;2022-10-22T07:14:31;100499.16;;;15.09;100.00
21904;BME280;11116;51.554;7.812;2022-10-22T07:16:57;100500.81;;;15.02;100.00
21904;BME280;11116;51.554;7.812;2022-10-22T07:19:24;100502.38;;;15.21;100.00
21904;BME280;11116;51.554;7.812;2022-10-22T07:21:51;100495.03;;;15.15;100.00
21904;BME280;11116;51.554;7.812;2022-10-22T07:24:19;100497.41;;;15.26;100.00
21904;BME280;11116;51.554;7.812;2022-10-22T07:26:46;100490.25;;;15.26;100.00
21904;BME280;11116;51.554;7.812;2022-10-22T07:29:13;100481.91;;;15.55;100.00
21904;BME280;11116;51.554;7.812;2022-10-22T07:31:40;100477.22;;;15.57;100.00
21904;BME280;11116;51.554;7.812;2022-10-22T07:34:07;100467.41;;;15.50;100.00
21904;BME280;11116;51.554;7.812;2022-10-22T07:36:34;100467.22;;;15.51;100.00
21904;BME280;11116;51.554;7.812;2022-10-22T07:39:02;100468.41;;;15.57;100.00
21904;BME280;11116;51.554;7.812;2022-10-22T07:41:30;100462.44;;;15.63;100.00
21904;BME280;11116;51.554;7.812;2022-10-22T07:43:57;100463.25;;;15.63;100.00
21904;BME280;11116;51.554;7.812;2022-10-22T07:46:25;100452.63;;;15.79;100.00
21904;BME280;11116;51.554;7.812;2022-10-22T07:48:52;100451.63;;;15.80;100.00
21904;BME280;11116;51.554;7.812;2022-10-22T07:51:19;100443.66;;;16.05;100.00
21904;BME280;11116;51.554;7.812;2022-10-22T07:53:46;100430.31;;;16.13;100.00
21904;BME280;11116;51.554;7.812;2022-10-22T07:56:13;100427.09;;;16.25;100.00
21904;BME280;11116;51.554;7.812;2022-10-22T07:58:41;100426.06;;;16.51;100.00
21904;BME280;11116;51.554;7.812;2022-10-22T08:01:08;100423.81;;;16.78;100.00
21904;BME280;11116;51.554;7.812;2022-10-22T08:03:35;100422.25;;;16.92;100.00
21904;BME280;11116;51.554;7.812;2022-10-22T08:06:02;100407.41;;;16.89;100.00
21904;BME280;11116;51.554;7.812;2022-10-22T08:08:29;100409.06;;;16.99;100.00
21904;BME280;11116;51.554;7.812;2022-10-22T08:10:56;100414.97;;;16.86;100.00
21904;BME280;11116;51.554;7.812;2022-10-22T08:13:24;100410.03;;;16.67;100.00
21904;BME280;11116;51.554;7.812;2022-10-22T08:15:53;100423.94;;;16.54;100.00
21904;BME280;11116;51.554;7.812;2022-10-22T08:18:20;100424.53;;;16.64;100.00
21904;BME280;11116;51.554;7.812;2022-10-22T08:20:46;100422.41;;;16.44;100.00
21904;BME280;11116;51.554;7.812;2022-10-22T08:23:13;100423.44;;;16.43;100.00
21904;BME280;11116;51.554;7.812;2022-10-22T08:25:40;100423.97;;;16.22;100.00
21904;BME280;11116;51.554;7.812;2022-10-22T08:28:07;100431.78;;;16.23;100.00
21904;BME280;11116;51.554;7.812;2022-10-22T08:30:33;100434.59;;;16.54;100.00
21904;BME280;11116;51.554;7.812;2022-10-22T08:33:04;100426.72;;;16.61;100.00
21904;BME280;11116;51.554;7.812;2022-10-22T08:35:31;100436.41;;;16.54;100.00
21904;BME280;11116;51.554;7.812;2022-10-22T08:37:58;100426.53;;;16.70;100.00
21904;BME280;11116;51.554;7.812;2022-10-22T08:40:27;100425.97;;;16.83;100.00
21904;BME280;11116;51.554;7.812;2022-10-22T08:43:10;100427.84;;;16.74;100.00
21904;BME280;11116;51.554;7.812;2022-10-22T08:45:45;100432.97;;;16.84;100.00
21904;BME280;11116;51.554;7.812;2022-10-22T08:48:27;100419.91;;;16.97;100.00
21904;BME280;11116;51.554;7.812;2022-10-22T08:50:58;100424.56;;;16.95;100.00
21904;BME280;11116;51.554;7.812;2022-10-22T08:53:31;100423.28;;;16.91;100.00
21904;BME280;11116;51.554;7.812;2022-10-22T08:56:02;100429.16;;;17.17;100.00
21904;BME280;11116;51.554;7.812;2022-10-22T08:58:35;100429.44;;;16.91;100.00
21904;BME280;11116;51.554;7.812;2022-10-22T09:01:06;100432.03;;;17.08;100.00
21904;BME280;11116;51.554;7.812;2022-10-22T09:03:44;100434.13;;;17.20;100.00
21904;BME280;11116;51.554;7.812;2022-10-22T09:06:14;100437.59;;;17.29;100.00
21904;BME280;11116;51.554;7.812;2022-10-22T09:08:42;100440.56;;;17.34;100.00
21904;BME280;11116;51.554;7.812;2022-10-22T09:11:19;100443.94;;;17.28;100.00
21904;BME280;11116;51.554;7.812;2022-10-22T09:13:48;100442.16;;;17.20;100.00
21904;BME280;11116;51.554;7.812;2022-10-22T09:16:19;100448.09;;;17.53;100.00
21904;BME280;11116;51.554;7.812;2022-10-22T09:18:56;100448.97;;;17.23;100.00
21904;BME280;11116;51.554;7.812;2022-10-22T09:21:33;100454.25;;;17.31;100.00
21904;BME280;11116;51.554;7.812;2022-10-22T09:24:09;100456.19;;;17.14;100.00
21904;BME280;11116;51.554;7.812;2022-10-22T09:26:39;100453.34;;;17.16;100.00
21904;BME280;11116;51.554;7.812;2022-10-22T09:29:12;100451.72;;;17.37;100.00
21904;BME280;11116;51.554;7.812;2022-10-22T09:31:42;100447.13;;;17.54;100.00
21904;BME280;11116;51.554;7.812;2022-10-22T09:34:13;100448.63;;;17.48;100.00
21904;BME280;11116;51.554;7.812;2022-10-22T09:36:40;100452.47;;;17.54;100.00
21904;BME280;11116;51.554;7.812;2022-10-22T09:39:21;100453.53;;;17.68;99.97
21904;BME280;11116;51.554;7.812;2022-10-22T09:41:48;100453.50;;;17.45;99.77
21904;BME280;11116;51.554;7.812;2022-10-22T09:44:16;100455.81;;;17.48;100.00
21904;BME280;11116;51.554;7.812;2022-10-22T09:46:43;100459.09;;;17.35;100.00
21904;BME280;11116;51.554;7.812;2022-10-22T09:49:14;100463.06;;;17.09;100.00
21904;BME280;11116;51.554;7.812;2022-10-22T09:51:53;100472.41;;;17.05;100.00
21904;BME280;11116;51.554;7.812;2022-10-22T09:54:21;100475.88;;;17.13;100.00
21904;BME280;11116;51.554;7.812;2022-10-22T09:56:54;100490.81;;;16.91;100.00
21904;BME280;11116;51.554;7.812;2022-10-22T09:59:27;100496.03;;;16.69;100.00
21904;BME280;11116;51.554;7.812;2022-10-22T10:02:00;100505.56;;;16.47;100.00
21904;BME280;11116;51.554;7.812;2022-10-22T10:04:33;100512.72;;;16.47;100.00
21904;BME280;11116;51.554;7.812;2022-10-22T10:07:00;100514.41;;;16.39;100.00
21904;BME280;11116;51.554;7.812;2022-10-22T10:09:30;100525.72;;;16.58;100.00
21904;BME280;11116;51.554;7.812;2022-10-22T10:12:05;100521.56;;;16.39;100.00
21904;BME280;11116;51.554;7.812;2022-10-22T10:14:45;100516.03;;;16.49;100.00
21904;BME280;11116;51.554;7.812;2022-10-22T10:17:21;100526.91;;;16.55;100.00
21904;BME280;11116;51.554;7.812;2022-10-22T10:20:07;100527.22;;;16.68;100.00
21904;BME280;11116;51.554;7.812;2022-10-22T10:22:46;100528.38;;;16.74;100.00
21904;BME280;11116;51.554;7.812;2022-10-22T10:25:34;100530.88;;;16.67;100.00
21904;BME280;11116;51.554;7.812;2022-10-22T10:28:15;100530.34;;;16.88;100.00
21904;BME280;11116;51.554;7.812;2022-10-22T10:30:50;100526.63;;;17.05;100.00
21904;BME280;11116;51.554;7.812;2022-10-22T10:33:28;100525.84;;;16.88;100.00
21904;BME280;11116;51.554;7.812;2022-10-22T10:36:03;100521.25;;;17.52;100.00
21904;BME280;11116;51.554;7.812;2022-10-22T10:38:50;100511.56;;;17.51;100.00
21904;BME280;11116;51.554;7.812;2022-10-22T10:41:25;100515.00;;;17.29;100.00
21904;BME280;11116;51.554;7.812;2022-10-22T10:44:23;100515.88;;;17.60;100.00
21904;BME280;11116;51.554;7.812;2022-10-22T10:47:02;100511.75;;;17.41;100.00
21904;BME280;11116;51.554;7.812;2022-10-22T10:49:33;100518.97;;;17.33;100.00
21904;BME280;11116;51.554;7.812;2022-10-22T10:52:08;100525.63;;;17.06;100.00
21904;BME280;11116;51.554;7.812;2022-10-22T10:54:43;100528.16;;;16.91;100.00
21904;BME280;11116;51.554;7.812;2022-10-22T10:57:20;100533.34;;;16.85;100.00
21904;BME280;11116;51.554;7.812;2022-10-22T11:00:04;100531.19;;;16.72;100.00
21904;BME280;11116;51.554;7.812;2022-10-22T11:03:12;100529.56;;;16.71;100.00
21904;BME280;11116;51.554;7.812;2022-10-22T11:05:44;100533.06;;;16.48;100.00
21904;BME280;11116;51.554;7.812;2022-10-22T11:08:18;100534.38;;;16.52;100.00
21904;BME280;11116;51.554;7.812;2022-10-22T11:10:49;100539.22;;;16.48;100.00
21904;BME280;11116;51.554;7.812;2022-10-22T11:13:23;100548.72;;;16.43;100.00
21904;BME280;11116;51.554;7.812;2022-10-22T11:15:58;100547.38;;;16.38;100.00
21904;BME280;11116;51.554;7.812;2022-10-22T11:18:29;100550.72;;;16.32;100.00
21904;BME280;11116;51.554;7.812;2022-10-22T11:21:16;100559.38;;;16.34;100.00
21904;BME280;11116;51.554;7.812;2022-10-22T11:23:49;100559.41;;;16.43;100.00
21904;BME280;11116;51.554;7.812;2022-10-22T11:26:26;100555.38;;;16.38;100.00
21904;BME280;11116;51.554;7.812;2022-10-22T11:28:56;100560.72;;;16.30;100.00
21904;BME280;11116;51.554;7.812;2022-10-22T11:31:25;100545.72;;;16.29;100.00
21904;BME280;11116;51.554;7.812;2022-10-22T11:33:54;100558.72;;;16.40;100.00
21904;BME280;11116;51.554;7.812;2022-10-22T11:36:24;100555.88;;;16.34;100.00
21904;BME280;11116;51.554;7.812;2022-10-22T11:38:54;100551.25;;;16.28;100.00
21904;BME280;11116;51.554;7.812;2022-10-22T11:41:23;100561.06;;;16.19;100.00
21904;BME280;11116;51.554;7.812;2022-10-22T11:44:07;100556.91;;;16.33;100.00
21904;BME280;11116;51.554;7.812;2022-10-22T11:46:43;100551.38;;;16.34;100.00
21904;BME280;11116;51.554;7.812;2022-10-22T11:49:21;100551.72;;;16.39;100.00
21904;BME280;11116;51.554;7.812;2022-10-22T11:51:49;100556.56;;;16.44;100.00
21904;BME280;11116;51.554;7.812;2022-10-22T11:54:37;100552.56;;;16.64;100.00
21904;BME280;11116;51.554;7.812;2022-10-22T11:57:21;100541.25;;;16.54;100.00
21904;BME280;11116;51.554;7.812;2022-10-22T11:59:55;100545.22;;;16.66;100.00
21904;BME280;11116;51.554;7.812;2022-10-22T12:02:39;100549.69;;;16.82;99.29
21904;BME280;11116;51.554;7.812;2022-10-22T12:05:32;100541.56;;;16.67;99.20
21904;BME280;11116;51.554;7.812;2022-10-22T12:08:05;100539.72;;;16.76;98.31
21904;BME280;11116;51.554;7.812;2022-10-22T12:10:54;100534.91;;;16.71;96.96
21904;BME280;11116;51.554;7.812;2022-10-22T12:13:24;100527.84;;;16.78;96.57
21904;BME280;11116;51.554;7.812;2022-10-22T12:15:54;100526.53;;;16.82;96.57
21904;BME280;11116;51.554;7.812;2022-10-22T12:18:23;100525.50;;;16.91;96.04
21904;BME280;11116;51.554;7.812;2022-10-22T12:20:52;100534.81;;;16.95;96.06
21904;BME280;11116;51.554;7.812;2022-10-22T12:23:29;100531.53;;;16.77;95.40
21904;BME280;11116;51.554;7.812;2022-10-22T12:25:58;100527.38;;;16.83;95.79
21904;BME280;11116;51.554;7.812;2022-10-22T12:28:25;100536.84;;;16.85;96.28
21904;BME280;11116;51.554;7.812;2022-10-22T12:30:52;100529.69;;;16.78;96.07
21904;BME280;11116;51.554;7.812;2022-10-22T12:33:20;100529.34;;;16.89;96.74
21904;BME280;11116;51.554;7.812;2022-10-22T12:35:49;100523.13;;;17.05;95.79
21904;BME280;11116;51.554;7.812;2022-10-22T12:38:20;100524.47;;;16.92;94.56
21904;BME280;11116;51.554;7.812;2022-10-22T12:40:49;100528.66;;;16.87;94.13
21904;BME280;11116;51.554;7.812;2022-10-22T12:43:18;100528.50;;;16.80;93.97
21904;BME280;11116;51.554;7.812;2022-10-22T12:45:47;100522.00;;;16.91;93.30
21904;BME280;11116;51.554;7.812;2022-10-22T12:48:17;100518.88;;;17.18;92.44
21904;BME280;11116;51.554;7.812;2022-10-22T12:50:47;100511.16;;;17.31;91.32
21904;BME280;11116;51.554;7.812;2022-10-22T12:53:16;100517.94;;;17.11;90.49
21904;BME280;11116;51.554;7.812;2022-10-22T12:55:45;100519.38;;;17.22;90.16
21904;BME280;11116;51.554;7.812;2022-10-22T12:58:18;100513.59;;;17.10;90.11